Here is the Quick Look data you requested

The Data originates at the National Weather Service, and is made available here by the UAlbany Department of Atmospheric and Environmental Sciences

Surface Observations

KCVG 210352Z 18005KT 10SM BKN013 OVC019 07/07 A3010 RMK AO2 SLP193 T00720067 $=
KCVG 210410Z 19003KT 10SM SCT019 OVC025 07/07 A3009 RMK AO2 T00720067 $=
KCVG 210452Z 18004KT 10SM OVC024 07/07 A3009 RMK AO2 SLP191 T00720067 400890006
 $=
KCVG 210552Z 19007KT 9SM FEW019 OVC026 07/07 A3009 RMK AO2 SLP190 60000
 T00720067 10078 20061 58002 $=
KCVG 210652Z 21005KT 10SM BKN022 OVC030 08/06 A3009 RMK AO2 SLP188 T00830061 $=
KCVG 210752Z 20007KT 10SM BKN023 OVC030 09/06 A3009 RMK AO2 SLP189 T00890056 $=
KCVG 210850Z 19006KT 10SM BKN032 OVC055 08/05 A3008 RMK AO2 $=
KCVG 210852Z 19006KT 10SM BKN032 OVC055 08/05 A3008 RMK AO2 SLP187 T00830050
 57002 $=
KCVG 210952Z 18004KT 10SM SCT031 BKN035 OVC060 08/04 A3008 RMK AO2 SLP186
 T00780044 $=
KCVG 211052Z 17005KT 10SM BKN030 BKN037 OVC060 07/04 A3009 RMK AO2 SLP189
 BINOVC T00720044 $=
KCVG 211152Z 18005KT 10SM BKN030 OVC065 08/04 A3009 RMK AO2 SLP190 T00780039
 10089 20067 53002 $=
KCVG 211252Z 19007KT 10SM BKN023 OVC065 08/04 A3010 RMK AO2 SLP191 T00830044 $=
KCVG 211352Z 19007KT 10SM BKN020 OVC025 09/05 A3010 RMK AO2 SLP193 T00940050 $=
KCVG 211452Z 20008KT 10SM BKN015 OVC018 10/06 A3011 RMK AO2 SLP196 T01000056
 53006 $=
KCVG 211552Z 20009KT 10SM BKN018 OVC019 11/07 A3011 RMK AO2 SLP195 T01110067 $=
KCVG 211652Z 20009KT 10SM BKN017 OVC018 12/07 A3009 RMK AO2 SLP190 T01170072 $=
KCVG 211752Z 22010KT 10SM BKN018 OVC019 13/08 A3006 RMK AO2 SLP178 T01280083
 10128 20072 58016 $=
KCVG 211852Z 21007KT 10SM BKN019 OVC021 13/09 A3004 RMK AO2 SLP171 T01280089 $=
KCVG 211952Z 21009G16KT 10SM BKN020 OVC030 13/09 A3004 RMK AO2 SLP169 T01280094
 $=
KCVG 212052Z 18010KT 10SM OVC029 13/10 A3003 RMK AO2 SLP168 T01280100 56010 $=
KCVG 212152Z 19010KT 10SM FEW015 OVC030 12/10 A3004 RMK AO2 SLP171 T01220100 $=
KCVG 212252Z 18009KT 10SM FEW013 OVC026 12/11 A3004 RMK AO2 SLP171 T01170106 $=
KCVG 212352Z 19007KT 10SM BKN018 OVC023 12/11 A3004 RMK AO2 SLP172 T01170106
 10133 20117 53000 $=
KCVG 220052Z 17006KT 10SM OVC020 11/11 A3004 RMK AO2 SLP170 T01110106 $=
KCVG 220152Z 15005KT 10SM OVC022 11/10 A3003 RMK AO2 SLP169 T01110100 $=
KCVG 220252Z 18005KT 10SM OVC030 11/11 A3003 RMK AO2 SLP167 T01110106 57004 $=
KCVG 220352Z 19006KT 10SM FEW035 FEW045 OVC100 11/10 A3002 RMK AO2 SLP162
 T01110100 $=
KCVG 220452Z 17007KT 10SM BKN045 OVC100 10/09 A3000 RMK AO2 SLP156 BINOVC
 T01000094 401330067 $=
KCVG 220552Z 19007KT 10SM BKN100 OVC200 11/09 A2999 RMK AO2 SLP151 BINOVC
 T01060094 10122 20094 56015 $=
KCVG 220652Z 18008KT 10SM BKN100 OVC200 10/08 A2996 RMK AO2 SLP143 T01000083 $=
KCVG 220752Z 18008KT 10SM OVC100 11/08 A2995 RMK AO2 SLP139 T01110083 $=
KCVG 220852Z 18009KT 10SM OVC110 12/07 A2994 RMK AO2 SLP137 T01170072 56014 $=
KCVG 220952Z 18010KT 10SM FEW080 OVC110 12/07 A2992 RMK AO2 SLP129 T01220072 $=
KCVG 221052Z 18008KT 10SM SCT120 OVC220 12/07 A2989 RMK AO2 SLP118 T01220072 $=
KCVG 221152Z 18011KT 10SM FEW130 OVC230 11/07 A2988 RMK AO2 SLP114 T01110072
 10122 20100 56022 $=
KCVG 221252Z 17015KT 10SM SCT160 OVC230 12/07 A2985 RMK AO2 SLP106 T01170072=
KCVG 221352Z 18013G22KT 10SM SCT110 OVC220 13/07 A2987 RMK AO2 SLP110 T01280072=
KCVG 221452Z 18014KT 10SM BKN110 OVC250 14/08 A2986 RMK AO2 SLP109 T01390078
 56005=
KCVG 221552Z 23008KT 10SM -RA OVC090 14/07 A2989 RMK AO2 RAB36 SLP120 P0000
 T01440072=